createdAt,value
2022-10-30T00:01:13.038Z,7.10
2022-10-30T00:03:39.576Z,6.90
2022-10-30T00:06:06.508Z,6.90
2022-10-30T00:08:33.605Z,7.03
2022-10-30T00:11:13.749Z,7.27
2022-10-30T00:13:42.478Z,7.30
2022-10-30T00:16:09.803Z,6.87
2022-10-30T00:18:38.372Z,6.97
2022-10-30T00:21:09.684Z,7.37
2022-10-30T00:23:36.153Z,6.70
2022-10-30T00:26:08.075Z,6.10
2022-10-30T00:28:34.876Z,6.40
2022-10-30T00:31:05.281Z,7.07
2022-10-30T00:33:32.145Z,7.33
2022-10-30T00:35:59.505Z,6.90
2022-10-30T00:38:26.207Z,6.37
2022-10-30T00:40:52.719Z,6.13
2022-10-30T00:43:35.213Z,6.17
2022-10-30T00:46:16.531Z,6.50
2022-10-30T00:48:48.213Z,5.90
2022-10-30T00:51:15.080Z,6.40
2022-10-30T00:53:42.982Z,6.07
2022-10-30T00:56:11.525Z,6.80
2022-10-30T00:58:52.839Z,5.73
2022-10-30T01:01:24.421Z,6.20
2022-10-30T01:03:54.582Z,5.93
2022-10-30T01:06:22.861Z,6.17
2022-10-30T01:08:55.291Z,6.57
2022-10-30T01:11:25.812Z,6.07
2022-10-30T01:13:55.957Z,6.33
2022-10-30T01:16:42.879Z,6.60
2022-10-30T01:19:25.262Z,5.60
2022-10-30T01:22:13.578Z,5.97
2022-10-30T01:24:40.054Z,6.10
2022-10-30T01:27:36.328Z,6.07
2022-10-30T01:30:31.104Z,5.30
2022-10-30T01:33:24.344Z,5.90
2022-10-30T01:36:11.225Z,6.20
2022-10-30T01:38:44.352Z,5.80
2022-10-30T01:41:10.878Z,6.10
2022-10-30T01:43:38.263Z,5.87
2022-10-30T01:46:17.028Z,6.03
2022-10-30T01:49:03.311Z,5.83
2022-10-30T01:52:13.644Z,6.13
2022-10-30T01:54:53.548Z,5.80
2022-10-30T01:57:31.878Z,6.13
2022-10-30T02:00:04.165Z,6.07
2022-10-30T02:02:39.721Z,5.73
2022-10-30T02:05:09.851Z,6.17
2022-10-30T02:07:36.765Z,6.30
2022-10-30T02:10:05.489Z,6.17
2022-10-30T02:12:32.077Z,6.17
2022-10-30T02:15:00.709Z,5.53
2022-10-30T02:17:28.321Z,5.70
2022-10-30T02:19:55.111Z,6.00
2022-10-30T02:22:24.764Z,6.47
2022-10-30T02:24:52.692Z,6.03
2022-10-30T02:27:23.072Z,6.00
2022-10-30T02:29:49.820Z,6.10
2022-10-30T02:32:16.545Z,5.87
2022-10-30T02:34:44.089Z,6.17
2022-10-30T02:37:10.796Z,5.50
2022-10-30T02:39:38.524Z,6.60
2022-10-30T02:42:05.718Z,6.07
2022-10-30T02:44:32.224Z,5.67
2022-10-30T02:46:58.687Z,5.70
2022-10-30T02:49:25.173Z,5.47
2022-10-30T02:51:51.966Z,5.30
2022-10-30T02:54:18.498Z,6.00
2022-10-30T02:56:45.584Z,6.60
2022-10-30T02:59:12.185Z,5.73
2022-10-30T03:01:38.886Z,5.50
2022-10-30T03:04:05.522Z,5.60
2022-10-30T03:06:32.123Z,5.97
2022-10-30T03:08:58.908Z,5.90
2022-10-30T03:11:26.034Z,5.87
2022-10-30T03:13:54.583Z,6.03
2022-10-30T03:16:26.670Z,6.10
2022-10-30T03:18:55.255Z,6.67
2022-10-30T03:21:25.397Z,5.93
2022-10-30T03:23:52.456Z,5.73
2022-10-30T03:26:20.272Z,5.97
2022-10-30T03:28:50.704Z,6.37
2022-10-30T03:31:19.177Z,6.30
2022-10-30T03:33:48.543Z,6.73
2022-10-30T03:36:15.711Z,6.27
2022-10-30T03:38:43.428Z,6.43
2022-10-30T03:41:13.368Z,6.60
2022-10-30T03:43:39.847Z,5.73
2022-10-30T03:46:06.420Z,5.63
2022-10-30T03:48:33.664Z,5.90
2022-10-30T03:51:00.223Z,7.03
2022-10-30T03:53:29.088Z,5.53
2022-10-30T03:56:01.004Z,6.20
2022-10-30T03:58:36.347Z,6.87
2022-10-30T04:01:05.915Z,6.60
2022-10-30T04:03:35.849Z,6.20
2022-10-30T04:06:03.024Z,6.60
2022-10-30T04:08:29.474Z,6.20
2022-10-30T04:10:57.047Z,6.57
2022-10-30T04:13:23.613Z,6.50
2022-10-30T04:15:57.239Z,6.67
2022-10-30T04:18:26.113Z,6.33
2022-10-30T04:20:53.664Z,6.67
2022-10-30T04:23:21.474Z,6.60
2022-10-30T04:25:48.349Z,6.60
2022-10-30T04:28:15.420Z,6.17
2022-10-30T04:30:42.541Z,6.83
2022-10-30T04:33:12.900Z,6.00
2022-10-30T04:35:42.520Z,6.20
2022-10-30T04:38:16.053Z,5.90
2022-10-30T04:40:44.447Z,6.37
2022-10-30T04:43:13.811Z,6.77
2022-10-30T04:45:41.940Z,6.47
2022-10-30T04:48:12.570Z,5.67
2022-10-30T04:50:39.517Z,6.03
2022-10-30T04:53:10.241Z,6.07
2022-10-30T04:55:36.688Z,6.80
2022-10-30T04:58:04.367Z,5.80
2022-10-30T05:00:35.372Z,6.73
2022-10-30T05:03:19.418Z,6.43
2022-10-30T05:05:47.933Z,6.27
2022-10-30T05:08:14.565Z,5.87
2022-10-30T05:10:41.185Z,6.40
2022-10-30T05:13:11.608Z,5.87
2022-10-30T05:15:38.363Z,6.00
2022-10-30T05:18:04.923Z,5.60
2022-10-30T05:20:31.550Z,6.63
2022-10-30T05:22:59.764Z,6.30
2022-10-30T05:25:27.941Z,5.97
2022-10-30T05:27:59.764Z,5.67
2022-10-30T05:30:30.731Z,5.77
2022-10-30T05:33:03.468Z,6.07
2022-10-30T05:35:32.656Z,5.93
2022-10-30T05:38:00.559Z,6.90
2022-10-30T05:40:27.737Z,6.70
2022-10-30T05:42:54.424Z,6.47
2022-10-30T05:45:22.252Z,6.60
2022-10-30T05:48:04.282Z,6.00
2022-10-30T05:50:37.353Z,5.87
2022-10-30T05:53:33.044Z,5.73
2022-10-30T05:56:00.267Z,5.70
2022-10-30T05:58:31.342Z,6.57
2022-10-30T06:01:05.441Z,6.00
2022-10-30T06:03:39.841Z,5.97
2022-10-30T06:06:07.000Z,6.37
2022-10-30T06:08:33.525Z,5.87
2022-10-30T06:11:05.640Z,6.53
2022-10-30T06:13:38.920Z,6.37
2022-10-30T06:16:16.303Z,6.73
2022-10-30T06:19:18.901Z,6.73
2022-10-30T06:21:49.235Z,6.70
2022-10-30T06:24:35.951Z,6.83
2022-10-30T06:27:22.371Z,6.73
2022-10-30T06:29:49.190Z,7.10
2022-10-30T06:32:16.001Z,6.03
2022-10-30T06:34:44.832Z,6.17
2022-10-30T06:37:13.039Z,6.27
2022-10-30T06:39:39.964Z,6.17
2022-10-30T06:42:29.306Z,6.27
2022-10-30T06:45:08.319Z,6.70
2022-10-30T06:47:36.166Z,7.37
2022-10-30T06:50:04.351Z,6.77
2022-10-30T06:52:30.989Z,6.37
2022-10-30T06:54:57.611Z,6.90
2022-10-30T06:57:41.328Z,6.93
2022-10-30T07:00:20.917Z,6.60
2022-10-30T07:03:13.951Z,7.60
2022-10-30T07:05:40.724Z,6.40
2022-10-30T07:08:07.280Z,6.50
2022-10-30T07:10:34.300Z,7.40
2022-10-30T07:13:23.866Z,7.17
2022-10-30T07:16:03.114Z,6.27
2022-10-30T07:18:36.335Z,7.07
2022-10-30T07:21:02.947Z,6.43
2022-10-30T07:23:30.800Z,7.00
2022-10-30T07:26:08.569Z,6.90
2022-10-30T07:28:44.043Z,7.00
2022-10-30T07:31:34.780Z,6.73
2022-10-30T07:34:16.746Z,6.20
2022-10-30T07:37:03.177Z,7.40
2022-10-30T07:39:39.462Z,6.87
2022-10-30T07:42:21.671Z,6.40
2022-10-30T07:45:07.367Z,7.00
2022-10-30T07:47:52.678Z,6.20
2022-10-30T07:50:29.589Z,6.90
2022-10-30T07:52:56.229Z,6.87
2022-10-30T07:55:26.415Z,6.50
2022-10-30T07:57:52.918Z,6.43
2022-10-30T08:00:57.796Z,7.33
2022-10-30T08:03:30.813Z,6.57
2022-10-30T08:06:04.931Z,6.50
2022-10-30T08:08:37.837Z,6.13
2022-10-30T08:11:23.735Z,6.50
2022-10-30T08:13:50.864Z,6.40
2022-10-30T08:16:18.456Z,6.10
2022-10-30T08:18:44.959Z,5.77
2022-10-30T08:21:11.678Z,5.73
2022-10-30T08:23:47.531Z,6.23
2022-10-30T08:26:16.952Z,6.07
2022-10-30T08:28:43.486Z,5.63
2022-10-30T08:31:11.312Z,6.33
2022-10-30T08:33:56.250Z,5.83
2022-10-30T08:36:49.425Z,6.43
2022-10-30T08:39:17.416Z,5.87
2022-10-30T08:41:59.043Z,6.30
2022-10-30T08:44:28.179Z,6.23
2022-10-30T08:47:27.101Z,5.23
2022-10-30T08:49:54.072Z,5.57
2022-10-30T08:52:24.992Z,6.00
2022-10-30T08:54:55.165Z,6.10
2022-10-30T08:57:23.916Z,5.40
2022-10-30T08:59:51.507Z,8.13
2022-10-30T09:02:50.289Z,6.37
2022-10-30T09:05:32.104Z,5.93
2022-10-30T09:08:24.787Z,6.33
2022-10-30T09:11:26.525Z,5.83
2022-10-30T09:13:53.345Z,5.73
2022-10-30T09:16:19.957Z,5.67
2022-10-30T09:18:46.396Z,6.20
2022-10-30T09:21:12.919Z,6.60
2022-10-30T09:23:44.377Z,6.70
2022-10-30T09:26:29.719Z,6.67
2022-10-30T09:29:16.512Z,6.93
2022-10-30T09:32:05.058Z,7.23
2022-10-30T09:34:32.591Z,7.53
2022-10-30T09:37:06.141Z,7.60
2022-10-30T09:39:36.394Z,7.03
2022-10-30T09:42:25.159Z,7.53
2022-10-30T09:45:30.157Z,7.27
2022-10-30T09:48:14.440Z,7.63
2022-10-30T09:51:35.345Z,6.87
2022-10-30T09:54:12.040Z,7.20
2022-10-30T09:57:01.077Z,7.13
2022-10-30T09:59:45.561Z,6.70
2022-10-30T10:02:28.238Z,6.50
2022-10-30T10:05:06.049Z,6.10
2022-10-30T10:08:03.870Z,6.17
2022-10-30T10:10:57.730Z,5.77
2022-10-30T10:13:57.322Z,6.30
2022-10-30T10:16:29.088Z,6.03
2022-10-30T10:19:08.971Z,5.47
2022-10-30T10:21:58.254Z,5.50
2022-10-30T10:24:29.364Z,6.00
2022-10-30T10:27:18.238Z,6.33
2022-10-30T10:30:06.617Z,6.27
2022-10-30T10:33:11.331Z,5.77
2022-10-30T10:35:53.358Z,5.13
2022-10-30T10:38:39.243Z,6.13
2022-10-30T10:41:21.412Z,5.77
2022-10-30T10:44:12.796Z,5.23
2022-10-30T10:46:42.200Z,5.53
2022-10-30T10:49:35.866Z,6.40
2022-10-30T10:52:13.263Z,5.90
2022-10-30T10:54:44.984Z,5.77
2022-10-30T10:57:25.888Z,5.63
2022-10-30T11:00:00.966Z,5.50
2022-10-30T11:02:33.503Z,6.00
2022-10-30T11:05:05.973Z,6.10
2022-10-30T11:07:37.080Z,5.93
2022-10-30T11:10:18.301Z,6.10
2022-10-30T11:12:45.456Z,5.67
2022-10-30T11:15:33.132Z,5.80
2022-10-30T11:21:16.493Z,5.50
2022-10-30T11:23:48.711Z,5.80
2022-10-30T11:26:18.232Z,5.80
2022-10-30T11:28:55.138Z,5.30
2022-10-30T11:31:37.902Z,5.23
2022-10-30T11:34:19.885Z,5.67
2022-10-30T11:36:48.679Z,5.80
2022-10-30T11:39:22.531Z,5.53
2022-10-30T11:42:01.835Z,5.80
2022-10-30T11:44:38.467Z,5.23
2022-10-30T11:47:07.864Z,5.27
2022-10-30T11:49:52.577Z,5.20
2022-10-30T11:52:26.417Z,5.20
2022-10-30T11:54:57.305Z,6.07
2022-10-30T11:57:42.380Z,5.57
2022-10-30T12:00:21.555Z,5.00
2022-10-30T12:02:51.522Z,5.23
2022-10-30T12:05:27.170Z,5.73
2022-10-30T12:07:55.337Z,5.43
2022-10-30T12:10:26.414Z,5.27
2022-10-30T12:12:53.329Z,5.30
2022-10-30T12:15:24.339Z,4.63
2022-10-30T12:18:03.057Z,5.50
2022-10-30T12:20:30.040Z,5.70
2022-10-30T12:22:57.860Z,5.00
2022-10-30T12:25:32.035Z,5.57
2022-10-30T12:28:07.758Z,5.33
2022-10-30T12:30:47.904Z,5.70
2022-10-30T12:33:25.020Z,5.37
2022-10-30T12:35:58.965Z,5.33
2022-10-30T12:38:38.088Z,5.50
2022-10-30T12:41:20.569Z,5.70
2022-10-30T12:43:58.283Z,5.50
2022-10-30T12:46:40.349Z,5.60
2022-10-30T12:49:31.849Z,6.10
2022-10-30T12:52:07.486Z,5.50
2022-10-30T12:54:42.472Z,5.37
2022-10-30T12:57:12.133Z,4.93
2022-10-30T13:00:14.651Z,5.40
2022-10-30T13:03:19.985Z,5.60
2022-10-30T13:06:10.622Z,5.00
2022-10-30T13:08:46.028Z,5.10
2022-10-30T13:11:44.306Z,4.97
2022-10-30T13:14:18.479Z,5.53
2022-10-30T13:16:45.043Z,5.30
2022-10-30T13:19:13.473Z,5.07
2022-10-30T13:21:46.047Z,5.50
2022-10-30T13:24:19.075Z,5.60
2022-10-30T13:27:07.636Z,5.70
2022-10-30T13:29:40.245Z,5.60
2022-10-30T13:32:17.468Z,5.73
2022-10-30T13:35:15.703Z,5.57
2022-10-30T13:37:47.401Z,5.57
2022-10-30T13:40:38.358Z,5.80
2022-10-30T13:43:28.652Z,5.10
2022-10-30T13:46:02.003Z,5.23
2022-10-30T13:49:09.457Z,5.03
2022-10-30T13:51:45.229Z,5.43
2022-10-30T13:54:22.446Z,5.20
2022-10-30T13:56:50.532Z,4.93
2022-10-30T13:59:44.341Z,5.27
2022-10-30T14:02:40.764Z,5.37
2022-10-30T14:05:26.155Z,4.80
2022-10-30T14:08:06.375Z,5.00
2022-10-30T14:10:46.104Z,4.90
2022-10-30T14:13:26.850Z,5.00
2022-10-30T14:16:02.528Z,5.50
2022-10-30T14:18:44.498Z,5.10
2022-10-30T14:21:34.938Z,5.03
2022-10-30T14:24:12.156Z,5.40
2022-10-30T14:26:45.267Z,5.70
2022-10-30T14:29:32.955Z,5.00
2022-10-30T14:32:00.521Z,5.80
2022-10-30T14:34:51.564Z,5.53
2022-10-30T14:37:24.120Z,5.47
2022-10-30T14:39:51.701Z,5.53
2022-10-30T14:42:44.212Z,5.30
2022-10-30T14:45:27.906Z,5.50
2022-10-30T14:48:13.193Z,5.80
2022-10-30T14:50:58.429Z,5.03
2022-10-30T14:53:46.785Z,5.23
2022-10-30T14:59:13.824Z,5.70
2022-10-30T15:01:50.403Z,5.40
2022-10-30T15:04:40.514Z,5.17
2022-10-30T15:07:24.431Z,5.30
2022-10-30T15:09:51.449Z,5.57
2022-10-30T15:12:48.750Z,5.60
2022-10-30T15:15:18.820Z,5.77
2022-10-30T15:17:48.250Z,5.10
2022-10-30T15:20:36.923Z,5.10
2022-10-30T15:23:18.972Z,4.77
2022-10-30T15:25:54.837Z,4.77
2022-10-30T15:31:00.296Z,7.00
2022-10-30T15:33:32.909Z,6.83
2022-10-30T15:35:59.605Z,6.00
2022-10-30T15:38:26.064Z,5.83
2022-10-30T15:40:59.083Z,5.70
2022-10-30T15:43:35.368Z,5.80
2022-10-30T15:46:09.496Z,5.60
2022-10-30T15:48:39.226Z,5.80
2022-10-30T15:51:23.149Z,6.57
2022-10-30T15:54:00.842Z,6.70
2022-10-30T15:56:41.134Z,5.97
2022-10-30T15:59:36.735Z,6.23
2022-10-30T16:02:03.765Z,5.83
2022-10-30T16:04:36.589Z,5.53
2022-10-30T16:07:17.813Z,6.17
2022-10-30T16:09:59.291Z,6.10
2022-10-30T16:12:27.868Z,7.07
2022-10-30T16:14:56.274Z,7.10
2022-10-30T16:17:25.457Z,6.80
2022-10-30T16:19:56.614Z,7.20
2022-10-30T16:22:33.901Z,8.23
2022-10-30T16:25:07.306Z,8.63
2022-10-30T16:27:33.851Z,8.43
2022-10-30T16:30:01.016Z,9.43
2022-10-30T16:32:31.161Z,9.20
2022-10-30T16:35:00.295Z,10.50
2022-10-30T16:37:34.007Z,14.13
2022-10-30T16:40:06.560Z,26.20
2022-10-30T16:42:33.750Z,26.93
2022-10-30T16:45:33.780Z,29.70
2022-10-30T16:48:09.244Z,25.80
2022-10-30T16:50:38.419Z,26.20
2022-10-30T16:53:19.303Z,23.27
2022-10-30T16:55:46.197Z,21.00
2022-10-30T16:58:14.646Z,19.60
2022-10-30T17:00:47.927Z,16.23
2022-10-30T17:03:14.550Z,15.87
2022-10-30T17:05:44.641Z,13.37
2022-10-30T17:08:17.015Z,12.57
2022-10-30T17:10:59.540Z,11.67
2022-10-30T17:13:36.856Z,11.37
2022-10-30T17:16:24.796Z,11.73
2022-10-30T17:18:54.367Z,12.03
2022-10-30T17:21:35.360Z,12.00
2022-10-30T17:24:03.238Z,14.63
2022-10-30T17:26:31.953Z,22.67
2022-10-30T17:28:58.518Z,39.57
2022-10-30T17:31:37.024Z,29.87
2022-10-30T17:34:03.544Z,24.27
2022-10-30T17:36:30.084Z,19.73
2022-10-30T17:38:56.557Z,18.60
2022-10-30T17:41:23.142Z,17.17
2022-10-30T17:43:53.075Z,16.60
2022-10-30T17:46:20.843Z,16.10
2022-10-30T17:48:47.717Z,12.83
2022-10-30T17:51:15.322Z,13.97
2022-10-30T17:53:42.247Z,13.37
2022-10-30T17:56:17.674Z,12.20
2022-10-30T17:58:44.151Z,11.27
2022-10-30T18:01:25.731Z,12.13
2022-10-30T18:03:57.503Z,10.27
2022-10-30T18:06:27.246Z,10.03
2022-10-30T18:08:54.519Z,10.10
2022-10-30T18:11:23.727Z,9.03
2022-10-30T18:13:51.925Z,9.03
2022-10-30T18:16:19.365Z,8.77
2022-10-30T18:18:46.060Z,8.07
2022-10-30T18:21:17.941Z,8.30
2022-10-30T18:23:52.451Z,7.70
2022-10-30T18:26:25.011Z,9.27
2022-10-30T18:28:51.958Z,8.63
2022-10-30T18:31:21.173Z,8.03
2022-10-30T18:33:48.525Z,9.00
2022-10-30T18:36:20.513Z,10.27
2022-10-30T18:38:47.344Z,9.63
2022-10-30T18:41:20.742Z,8.90
2022-10-30T18:43:47.630Z,9.60
2022-10-30T18:46:15.616Z,10.50
2022-10-30T18:48:42.302Z,9.83
2022-10-30T18:51:17.943Z,11.20
2022-10-30T18:53:54.305Z,12.43
2022-10-30T18:56:28.816Z,12.97
2022-10-30T18:59:01.556Z,13.20
2022-10-30T19:01:30.837Z,12.40
2022-10-30T19:04:00.699Z,14.07
2022-10-30T19:06:27.205Z,12.73
2022-10-30T19:08:54.117Z,14.63
2022-10-30T19:11:24.564Z,13.03
2022-10-30T19:13:53.438Z,12.67
2022-10-30T19:16:21.561Z,12.10
2022-10-30T19:18:49.116Z,11.50
2022-10-30T19:21:21.503Z,15.53
2022-10-30T19:23:49.368Z,13.87
2022-10-30T19:26:17.545Z,12.33
2022-10-30T19:28:45.522Z,11.67
2022-10-30T19:31:17.717Z,11.73
2022-10-30T19:33:44.940Z,11.77
2022-10-30T19:36:28.257Z,11.37
2022-10-30T19:38:55.492Z,11.17
2022-10-30T19:41:22.877Z,10.37
2022-10-30T19:43:49.513Z,10.60
2022-10-30T19:46:16.288Z,10.03
2022-10-30T19:48:59.289Z,10.30
2022-10-30T19:51:28.873Z,10.37
2022-10-30T19:53:56.163Z,10.27
2022-10-30T19:56:23.514Z,10.73
2022-10-30T19:58:50.337Z,11.07
2022-10-30T20:01:17.325Z,10.70
2022-10-30T20:03:43.898Z,10.57
2022-10-30T20:06:13.708Z,10.80
2022-10-30T20:08:40.233Z,9.93
2022-10-30T20:11:07.215Z,10.10
2022-10-30T20:13:34.071Z,9.83
2022-10-30T20:16:04.631Z,11.47
2022-10-30T20:18:34.119Z,12.10
2022-10-30T20:21:03.023Z,12.23
2022-10-30T20:23:29.542Z,11.13
2022-10-30T20:26:06.393Z,11.23
2022-10-30T20:28:37.123Z,11.83
2022-10-30T20:31:04.761Z,10.60
2022-10-30T20:33:31.392Z,11.30
2022-10-30T20:35:57.909Z,11.07
2022-10-30T20:38:29.353Z,10.37
2022-10-30T20:40:57.419Z,9.63
2022-10-30T20:43:37.893Z,10.00
2022-10-30T20:46:07.347Z,10.00
2022-10-30T20:48:33.808Z,11.03
2022-10-30T20:51:04.192Z,10.63
2022-10-30T20:53:30.651Z,12.33
2022-10-30T20:55:57.507Z,12.83
2022-10-30T20:58:24.161Z,12.07
2022-10-30T21:00:51.277Z,11.07
2022-10-30T21:03:18.158Z,10.33
2022-10-30T21:05:46.036Z,12.03
2022-10-30T21:08:14.060Z,11.17
2022-10-30T21:10:41.543Z,10.30
2022-10-30T21:13:09.550Z,10.87
2022-10-30T21:15:42.949Z,10.50
2022-10-30T21:18:11.251Z,10.47
2022-10-30T21:20:37.819Z,10.07
2022-10-30T21:23:05.293Z,10.23
2022-10-30T21:25:32.457Z,9.60
2022-10-30T21:27:59.314Z,9.47
2022-10-30T21:30:26.132Z,9.50
2022-10-30T21:32:52.623Z,9.37
2022-10-30T21:35:19.600Z,9.10
2022-10-30T21:37:46.107Z,10.47
2022-10-30T21:40:13.225Z,9.80
2022-10-30T21:42:39.717Z,10.33
2022-10-30T21:45:07.068Z,10.20
2022-10-30T21:47:34.308Z,10.60
2022-10-30T21:50:00.791Z,11.40
2022-10-30T21:52:27.194Z,11.90
2022-10-30T21:54:53.751Z,12.63
2022-10-30T21:57:20.547Z,11.00
2022-10-30T21:59:47.045Z,11.63
2022-10-30T22:02:15.222Z,11.47
2022-10-30T22:04:42.181Z,10.33
2022-10-30T22:07:08.727Z,11.43
2022-10-30T22:09:35.292Z,11.17
2022-10-30T22:12:03.515Z,10.63
2022-10-30T22:14:30.060Z,10.77
2022-10-30T22:16:56.716Z,9.63
2022-10-30T22:19:23.297Z,10.60
2022-10-30T22:21:49.839Z,10.03
2022-10-30T22:24:17.251Z,9.57
2022-10-30T22:26:44.178Z,11.63
2022-10-30T22:29:11.570Z,13.00
2022-10-30T22:31:38.176Z,10.97
2022-10-30T22:34:04.843Z,12.33
2022-10-30T22:36:32.937Z,10.43
2022-10-30T22:39:05.822Z,10.13
2022-10-30T22:41:37.356Z,11.27
2022-10-30T22:44:07.428Z,9.83
2022-10-30T22:46:34.407Z,11.63
2022-10-30T22:49:00.883Z,11.60
2022-10-30T22:51:28.157Z,10.93
2022-10-30T22:53:59.797Z,10.87
2022-10-30T22:56:28.782Z,11.03
2022-10-30T22:58:56.151Z,10.53
2022-10-30T23:01:27.212Z,12.30
2022-10-30T23:03:59.021Z,11.40
2022-10-30T23:06:26.570Z,12.17
2022-10-30T23:08:55.483Z,11.77
2022-10-30T23:11:23.222Z,11.87
2022-10-30T23:13:50.631Z,11.53
2022-10-30T23:16:20.663Z,11.10
2022-10-30T23:18:47.914Z,11.00
2022-10-30T23:21:20.800Z,10.80
2022-10-30T23:23:47.561Z,11.73
2022-10-30T23:26:17.963Z,10.63
2022-10-30T23:28:45.981Z,11.63
2022-10-30T23:31:19.795Z,11.70
2022-10-30T23:33:48.647Z,10.30
2022-10-30T23:36:16.113Z,12.17
2022-10-30T23:38:42.841Z,11.47
2022-10-30T23:41:09.597Z,11.13
2022-10-30T23:43:36.058Z,10.80
2022-10-30T23:46:02.553Z,10.00
2022-10-30T23:48:29.100Z,10.27
2022-10-30T23:50:55.733Z,10.43
2022-10-30T23:53:22.289Z,10.23
2022-10-30T23:55:50.910Z,9.40
2022-10-30T23:58:17.660Z,9.40
